createdAt,value
2023-05-19T00:00:50.932Z,101826.50
2023-05-19T00:03:21.886Z,101815.19
2023-05-19T00:05:50.541Z,101822.13
2023-05-19T00:08:20.394Z,101818.63
2023-05-19T00:10:48.981Z,101819.50
2023-05-19T00:13:17.630Z,101818.59
2023-05-19T00:15:46.032Z,101817.72
2023-05-19T00:18:14.451Z,101826.44
2023-05-19T00:20:44.085Z,101814.25
2023-05-19T00:23:12.561Z,101816.78
2023-05-19T00:25:40.610Z,101809.81
2023-05-19T00:28:08.552Z,101813.28
2023-05-19T00:30:36.471Z,101812.38
2023-05-19T00:33:04.511Z,101815.81
2023-05-19T00:35:32.893Z,101814.06
2023-05-19T00:38:02.227Z,101814.03
2023-05-19T00:40:33.283Z,101814.91
2023-05-19T00:43:01.834Z,101808.78
2023-05-19T00:45:30.243Z,101815.75
2023-05-19T00:47:58.272Z,101817.44
2023-05-19T00:50:27.401Z,101813.88
2023-05-19T00:52:55.744Z,101816.50
2023-05-19T00:55:28.233Z,101813.88
2023-05-19T00:57:57.320Z,101819.03
2023-05-19T01:00:25.834Z,101815.50
2023-05-19T01:02:54.218Z,101819.84
2023-05-19T01:05:22.381Z,101822.34
2023-05-19T01:07:53.431Z,101821.53
2023-05-19T01:10:21.658Z,101821.44
2023-05-19T01:12:51.184Z,101827.53
2023-05-19T01:15:20.957Z,101821.47
2023-05-19T01:17:55.635Z,101821.41
2023-05-19T01:20:29.312Z,101816.13
2023-05-19T01:23:19.019Z,101809.09
2023-05-19T01:26:23.652Z,101807.28
2023-05-19T01:29:08.999Z,101803.75
2023-05-19T01:31:40.114Z,101810.75
2023-05-19T01:34:09.250Z,101805.63
2023-05-19T01:36:38.192Z,101808.13
2023-05-19T01:39:07.988Z,101808.97
2023-05-19T01:41:36.611Z,101799.34
2023-05-19T01:44:04.754Z,101806.28
2023-05-19T01:46:32.860Z,101804.50
2023-05-19T01:49:03.040Z,101803.69
2023-05-19T01:51:31.463Z,101801.91
2023-05-19T01:54:00.376Z,101805.41
2023-05-19T01:56:39.406Z,101806.22
2023-05-19T01:59:24.253Z,101802.75
2023-05-19T02:01:55.005Z,101807.13
2023-05-19T02:04:39.197Z,101809.69
2023-05-19T02:07:16.511Z,101801.88
2023-05-19T02:09:54.254Z,101802.69
2023-05-19T02:12:29.430Z,101813.13
2023-05-19T02:15:07.584Z,101813.13
2023-05-19T02:17:41.417Z,101819.09
2023-05-19T02:20:12.969Z,101813.84
2023-05-19T02:22:41.161Z,101812.09
2023-05-19T02:25:10.059Z,101817.22
2023-05-19T02:27:39.661Z,101813.63
2023-05-19T02:30:09.368Z,101817.06
2023-05-19T02:32:38.280Z,101817.00
2023-05-19T02:35:08.133Z,101820.38
2023-05-19T02:37:37.443Z,101819.50
2023-05-19T02:40:06.637Z,101814.25
2023-05-19T02:42:34.779Z,101813.22
2023-05-19T02:45:02.839Z,101812.34
2023-05-19T02:47:30.913Z,101812.38
2023-05-19T02:49:59.159Z,101801.94
2023-05-19T02:52:27.048Z,101807.03
2023-05-19T02:54:56.406Z,101805.31
2023-05-19T02:57:24.321Z,101809.66
2023-05-19T02:59:52.375Z,101808.78
2023-05-19T03:02:20.465Z,101805.34
2023-05-19T03:04:48.721Z,101794.88
2023-05-19T03:07:16.767Z,101805.22
2023-05-19T03:09:44.724Z,101805.16
2023-05-19T03:12:14.141Z,101811.16
2023-05-19T03:14:42.357Z,101799.75
2023-05-19T03:17:10.715Z,101801.31
2023-05-19T03:19:39.202Z,101790.94
2023-05-19T03:22:07.154Z,101789.16
2023-05-19T03:24:36.292Z,101790.94
2023-05-19T03:27:05.896Z,101802.22
2023-05-19T03:29:36.899Z,101797.84
2023-05-19T03:32:05.388Z,101793.44
2023-05-19T03:34:33.911Z,101793.38
2023-05-19T03:37:01.950Z,101799.44
2023-05-19T03:39:30.147Z,101795.97
2023-05-19T03:41:58.621Z,101798.56
2023-05-19T03:44:27.109Z,101802.81
2023-05-19T03:46:56.861Z,101800.97
2023-05-19T03:49:43.654Z,101803.53
2023-05-19T03:52:31.869Z,101799.16
2023-05-19T03:55:09.210Z,101800.97
2023-05-19T03:57:37.813Z,101802.81
2023-05-19T04:00:07.138Z,101805.38
2023-05-19T04:02:42.118Z,101804.47
2023-05-19T04:05:11.029Z,101812.22
2023-05-19T04:07:39.156Z,101804.47
2023-05-19T04:10:08.508Z,101805.19
2023-05-19T04:12:36.480Z,101807.00
2023-05-19T04:15:05.847Z,101803.72
2023-05-19T04:17:34.079Z,101807.31
2023-05-19T04:20:04.806Z,101805.59
2023-05-19T04:22:32.833Z,101809.19
2023-05-19T04:25:00.862Z,101803.22
2023-05-19T04:27:31.936Z,101799.91
2023-05-19T04:30:00.464Z,101810.47
2023-05-19T04:32:29.351Z,101808.84
2023-05-19T04:34:59.422Z,101799.31
2023-05-19T04:37:30.663Z,101801.22
2023-05-19T04:39:59.679Z,101807.44
2023-05-19T04:42:33.097Z,101801.56
2023-05-19T04:45:03.229Z,101804.41
2023-05-19T04:47:36.902Z,101801.09
2023-05-19T04:50:06.133Z,101809.16
2023-05-19T04:52:36.208Z,101806.63
2023-05-19T04:55:06.322Z,101808.47
2023-05-19T04:57:34.626Z,101810.34
2023-05-19T05:00:04.276Z,101803.38
2023-05-19T05:02:39.473Z,101808.72
2023-05-19T05:07:38.957Z,101820.25
2023-05-19T05:10:09.421Z,101804.72
2023-05-19T05:12:38.270Z,101812.59
2023-05-19T05:15:08.073Z,101816.97
2023-05-19T05:17:37.755Z,101807.47
2023-05-19T05:20:08.018Z,101805.66
2023-05-19T05:22:39.653Z,101821.31
2023-05-19T05:25:10.498Z,101813.47
2023-05-19T05:27:39.421Z,101815.94
2023-05-19T05:30:10.106Z,101810.53
2023-05-19T05:32:39.502Z,101817.44
2023-05-19T05:35:13.603Z,101807.94
2023-05-19T05:37:43.008Z,101816.41
2023-05-19T05:40:11.865Z,101808.53
2023-05-19T05:42:40.483Z,101807.28
2023-05-19T05:45:10.575Z,101808.03
2023-05-19T05:47:39.858Z,101807.59
2023-05-19T05:50:11.151Z,101809.34
2023-05-19T05:52:41.623Z,101805.53
2023-05-19T05:55:13.257Z,101800.81
2023-05-19T05:57:41.910Z,101802.56
2023-05-19T06:00:15.632Z,101804.75
2023-05-19T06:02:44.800Z,101804.13
2023-05-19T06:05:14.042Z,101809.81
2023-05-19T06:07:43.790Z,101807.16
2023-05-19T06:10:15.008Z,101808.81
2023-05-19T06:12:43.336Z,101806.91
2023-05-19T06:15:12.524Z,101800.94
2023-05-19T06:18:00.198Z,101798.66
2023-05-19T06:20:28.748Z,101794.38
2023-05-19T06:22:57.692Z,101795.63
2023-05-19T06:25:31.275Z,101796.06
2023-05-19T06:27:59.453Z,101802.41
2023-05-19T06:30:28.652Z,101793.53
2023-05-19T06:33:07.980Z,101794.19
2023-05-19T06:35:35.994Z,101795.09
2023-05-19T06:38:04.224Z,101797.03
2023-05-19T06:40:33.758Z,101793.84
2023-05-19T06:43:01.978Z,101793.53
2023-05-19T06:45:49.915Z,101791.78
2023-05-19T06:48:17.934Z,101794.31
2023-05-19T06:50:46.025Z,101793.91
2023-05-19T06:53:14.390Z,101795.53
2023-05-19T06:55:57.423Z,101790.06
2023-05-19T06:58:28.571Z,101792.25
2023-05-19T07:00:58.006Z,101800.47
2023-05-19T07:03:31.077Z,101787.66
2023-05-19T07:06:00.028Z,101786.47
2023-05-19T07:08:29.006Z,101793.78
2023-05-19T07:10:59.136Z,101788.25
2023-05-19T07:13:27.736Z,101789.03
2023-05-19T07:15:57.044Z,101786.97
2023-05-19T07:18:26.547Z,101782.94
2023-05-19T07:20:54.522Z,101779.19
2023-05-19T07:23:22.664Z,101780.97
2023-05-19T07:25:51.469Z,101775.81
2023-05-19T07:28:20.742Z,101778.50
2023-05-19T07:30:49.971Z,101765.31
2023-05-19T07:33:17.889Z,101770.25
2023-05-19T07:35:46.323Z,101778.41
2023-05-19T07:38:14.233Z,101772.53
2023-05-19T07:40:42.187Z,101771.44
2023-05-19T07:43:11.330Z,101772.28
2023-05-19T07:45:41.004Z,101785.00
2023-05-19T07:48:08.952Z,101777.03
2023-05-19T07:50:37.071Z,101779.06
2023-05-19T07:53:05.103Z,101772.41
2023-05-19T07:55:33.100Z,101763.66
2023-05-19T07:58:01.029Z,101765.28
2023-05-19T08:00:29.079Z,101768.50
2023-05-19T08:02:58.734Z,101756.75
2023-05-19T08:05:26.778Z,101756.31
2023-05-19T08:07:54.682Z,101767.09
2023-05-19T08:10:22.612Z,101758.13
2023-05-19T08:12:50.541Z,101752.63
2023-05-19T08:15:18.980Z,101758.75
2023-05-19T08:17:46.928Z,101748.50
2023-05-19T08:20:16.189Z,101744.97
2023-05-19T08:22:44.131Z,101744.66
2023-05-19T08:25:12.127Z,101742.78
2023-05-19T08:27:39.982Z,101736.53
2023-05-19T08:30:09.107Z,101737.75
2023-05-19T08:32:37.013Z,101737.31
2023-05-19T08:35:05.212Z,101739.44
2023-05-19T08:37:37.075Z,101733.81
2023-05-19T08:40:06.266Z,101723.81
2023-05-19T08:42:34.341Z,101724.13
2023-05-19T08:45:03.191Z,101718.75
2023-05-19T08:47:31.328Z,101723.88
2023-05-19T08:50:04.962Z,101723.19
2023-05-19T08:52:50.250Z,101727.50
2023-05-19T08:55:28.625Z,101719.53
2023-05-19T08:57:57.839Z,101713.00
2023-05-19T09:00:26.760Z,101714.09
2023-05-19T09:03:00.189Z,101703.66
2023-05-19T09:05:34.753Z,101703.25
2023-05-19T09:08:05.589Z,101706.69
2023-05-19T09:10:33.534Z,101705.53
2023-05-19T09:13:01.503Z,101694.69
2023-05-19T09:15:29.640Z,101692.69
2023-05-19T09:18:10.696Z,101689.25
2023-05-19T09:20:40.668Z,101697.09
2023-05-19T09:23:14.886Z,101691.00
2023-05-19T09:25:49.249Z,101688.34
2023-05-19T09:28:25.076Z,101682.50
2023-05-19T09:31:00.810Z,101674.81
2023-05-19T09:33:29.378Z,101680.63
2023-05-19T09:35:57.414Z,101683.72
2023-05-19T09:38:27.314Z,101678.38
2023-05-19T09:40:57.532Z,101680.44
2023-05-19T09:43:25.469Z,101670.19
2023-05-19T09:45:56.765Z,101674.06
2023-05-19T09:48:27.642Z,101672.41
2023-05-19T09:50:57.218Z,101675.13
2023-05-19T09:53:26.613Z,101663.72
2023-05-19T09:55:57.834Z,101665.59
2023-05-19T09:58:26.272Z,101667.25
2023-05-19T10:00:55.468Z,101654.34
2023-05-19T10:03:24.916Z,101661.38
2023-05-19T10:05:54.592Z,101655.78
2023-05-19T10:08:24.456Z,101654.50
2023-05-19T10:10:53.817Z,101650.22
2023-05-19T10:13:23.069Z,101647.84
2023-05-19T10:18:25.209Z,101650.84
2023-05-19T10:20:53.770Z,101650.16
2023-05-19T10:23:22.336Z,101638.72
2023-05-19T10:25:52.085Z,101637.22
2023-05-19T10:28:25.390Z,101640.00
2023-05-19T10:30:57.750Z,101638.00
2023-05-19T10:33:35.445Z,101636.84
2023-05-19T10:36:29.133Z,101643.91
2023-05-19T10:39:03.450Z,101635.28
2023-05-19T10:41:43.979Z,101635.69
2023-05-19T10:44:24.420Z,101630.00
2023-05-19T10:46:54.171Z,101630.75
2023-05-19T10:49:24.204Z,101630.34
2023-05-19T10:51:56.032Z,101619.16
2023-05-19T10:54:43.298Z,101626.06
2023-05-19T10:57:16.290Z,101616.50
2023-05-19T10:59:46.167Z,101626.06
2023-05-19T11:02:40.770Z,101619.38
2023-05-19T11:05:10.562Z,101605.91
2023-05-19T11:07:38.655Z,101610.13
2023-05-19T11:10:08.107Z,101603.91
2023-05-19T11:12:43.910Z,101618.75
2023-05-19T11:15:15.602Z,101606.47
2023-05-19T11:17:48.317Z,101600.81
2023-05-19T11:20:23.826Z,101602.47
2023-05-19T11:23:07.314Z,101610.81
2023-05-19T11:25:46.795Z,101595.94
2023-05-19T11:28:17.554Z,101600.94
2023-05-19T11:30:50.522Z,101604.81
2023-05-19T11:33:19.932Z,101601.22
2023-05-19T11:35:49.437Z,101594.78
2023-05-19T11:38:19.726Z,101597.72
2023-05-19T11:40:53.695Z,101588.97
2023-05-19T11:43:24.258Z,101591.88
2023-05-19T11:45:54.900Z,101583.13
2023-05-19T11:48:23.752Z,101584.19
2023-05-19T11:50:52.500Z,101586.84
2023-05-19T11:53:21.062Z,101576.94
2023-05-19T11:55:49.965Z,101569.38
2023-05-19T11:58:18.109Z,101565.06
2023-05-19T12:00:47.571Z,101560.25
2023-05-19T12:03:22.253Z,101561.41
2023-05-19T12:05:50.933Z,101557.16
2023-05-19T12:08:19.483Z,101563.88
2023-05-19T12:10:50.446Z,101555.34
2023-05-19T12:13:18.421Z,101555.00
2023-05-19T12:15:46.383Z,101558.50
2023-05-19T12:18:14.780Z,101542.06
2023-05-19T12:20:44.536Z,101537.06
2023-05-19T12:23:14.424Z,101537.78
2023-05-19T12:25:42.714Z,101545.88
2023-05-19T12:28:11.652Z,101541.56
2023-05-19T12:30:39.661Z,101524.09
2023-05-19T12:33:07.684Z,101530.38
2023-05-19T12:35:38.790Z,101532.03
2023-05-19T12:38:08.188Z,101530.06
2023-05-19T12:40:37.417Z,101531.34
2023-05-19T12:43:07.832Z,101526.41
2023-05-19T12:45:37.042Z,101521.19
2023-05-19T12:48:06.667Z,101521.38
2023-05-19T12:50:35.280Z,101514.59
2023-05-19T12:53:03.762Z,101511.88
2023-05-19T12:55:39.641Z,101520.47
2023-05-19T12:58:08.536Z,101521.53
2023-05-19T13:00:41.710Z,101525.28
2023-05-19T13:03:15.964Z,101521.00
2023-05-19T13:05:46.556Z,101516.69
2023-05-19T13:08:16.163Z,101519.88
2023-05-19T13:10:47.187Z,101511.91
2023-05-19T13:13:15.340Z,101502.75
2023-05-19T13:15:44.478Z,101499.00
2023-05-19T13:18:13.989Z,101492.72
2023-05-19T13:20:43.218Z,101498.66
2023-05-19T13:23:11.587Z,101492.97
2023-05-19T13:25:39.498Z,101490.81
2023-05-19T13:28:08.991Z,101477.66
2023-05-19T13:30:39.666Z,101486.00
2023-05-19T13:33:08.231Z,101483.22
2023-05-19T13:35:38.284Z,101481.44
2023-05-19T13:38:06.837Z,101488.25
2023-05-19T13:40:35.612Z,101491.22
2023-05-19T13:43:04.198Z,101483.84
2023-05-19T13:45:33.476Z,101471.28
2023-05-19T13:48:01.423Z,101476.91
2023-05-19T13:50:29.516Z,101481.75
2023-05-19T13:52:57.461Z,101485.44
2023-05-19T13:55:27.260Z,101474.41
2023-05-19T13:57:55.255Z,101466.13
2023-05-19T14:00:23.923Z,101469.34
2023-05-19T14:02:53.836Z,101463.75
2023-05-19T14:05:21.909Z,101452.09
2023-05-19T14:07:49.867Z,101450.84
2023-05-19T14:10:17.976Z,101456.59
2023-05-19T14:13:12.416Z,101453.69
2023-05-19T14:15:37.841Z,101452.22
2023-05-19T14:18:07.629Z,101451.00
2023-05-19T14:20:37.335Z,101452.16
2023-05-19T14:23:05.586Z,101452.66
2023-05-19T14:25:33.497Z,101457.44
2023-05-19T14:28:01.789Z,101446.22
2023-05-19T14:30:30.036Z,101450.91
2023-05-19T14:32:57.992Z,101451.31
2023-05-19T14:35:27.927Z,101451.00
2023-05-19T14:37:55.767Z,101446.16
2023-05-19T14:40:23.625Z,101444.78
2023-05-19T14:42:51.536Z,101449.88
2023-05-19T14:45:19.627Z,101446.78
2023-05-19T14:47:48.048Z,101448.94
2023-05-19T14:50:16.074Z,101443.69
2023-05-19T14:52:45.410Z,101431.19
2023-05-19T14:55:13.356Z,101438.16
2023-05-19T14:57:41.382Z,101436.88
2023-05-19T15:00:10.330Z,101434.69
2023-05-19T15:02:38.329Z,101429.72
2023-05-19T15:05:06.792Z,101429.84
2023-05-19T15:07:34.716Z,101432.91
2023-05-19T15:10:04.212Z,101431.63
2023-05-19T15:12:32.107Z,101418.75
2023-05-19T15:15:00.088Z,101420.06
2023-05-19T15:17:28.057Z,101416.44
2023-05-19T15:19:55.923Z,101420.00
2023-05-19T15:22:23.812Z,101411.69
2023-05-19T15:24:51.805Z,101418.19
2023-05-19T15:27:21.358Z,101409.25
2023-05-19T15:29:50.360Z,101406.06
2023-05-19T15:32:18.377Z,101407.13
2023-05-19T15:34:46.250Z,101406.84
2023-05-19T15:37:14.147Z,101404.31
2023-05-19T15:39:42.070Z,101398.97
2023-05-19T15:42:09.963Z,101395.94
2023-05-19T15:44:39.600Z,101398.16
2023-05-19T15:47:07.463Z,101396.69
2023-05-19T15:49:35.387Z,101387.50
2023-05-19T15:52:04.427Z,101396.88
2023-05-19T15:54:32.390Z,101386.44
2023-05-19T15:57:00.291Z,101380.97
2023-05-19T15:59:28.413Z,101380.47
2023-05-19T16:01:57.723Z,101374.56
2023-05-19T16:04:25.670Z,101382.66
2023-05-19T16:06:53.603Z,101379.56
2023-05-19T16:09:21.617Z,101381.50
2023-05-19T16:11:49.625Z,101380.97
2023-05-19T16:14:17.480Z,101375.00
2023-05-19T16:16:45.671Z,101379.69
2023-05-19T16:19:15.198Z,101379.16
2023-05-19T16:21:43.103Z,101381.22
2023-05-19T16:24:11.049Z,101379.53
2023-05-19T16:26:38.940Z,101378.91
2023-05-19T16:29:06.814Z,101373.84
2023-05-19T16:31:34.754Z,101375.28
2023-05-19T16:34:02.630Z,101372.88
2023-05-19T16:36:31.861Z,101376.84
2023-05-19T16:38:59.739Z,101375.69
2023-05-19T16:41:27.666Z,101369.25
2023-05-19T16:43:55.502Z,101368.63
2023-05-19T16:46:23.554Z,101367.91
2023-05-19T16:48:51.500Z,101365.16
2023-05-19T16:51:19.419Z,101370.53
2023-05-19T16:53:48.728Z,101362.16
2023-05-19T16:56:16.614Z,101360.97
2023-05-19T16:58:44.486Z,101356.25
2023-05-19T17:01:12.451Z,101357.72
2023-05-19T17:03:40.529Z,101359.22
2023-05-19T17:06:08.470Z,101357.56
2023-05-19T17:08:36.397Z,101351.53
2023-05-19T17:11:06.480Z,101367.91
2023-05-19T17:13:36.292Z,101356.38
2023-05-19T17:16:04.353Z,101361.88
2023-05-19T17:18:32.308Z,101367.03
2023-05-19T17:21:03.432Z,101360.25
2023-05-19T17:23:31.634Z,101360.78
2023-05-19T17:25:59.494Z,101366.69
2023-05-19T17:28:28.803Z,101360.75
2023-05-19T17:30:56.914Z,101367.72
2023-05-19T17:33:24.980Z,101361.22
2023-05-19T17:35:53.014Z,101363.34
2023-05-19T17:38:20.889Z,101363.41
2023-05-19T17:40:48.866Z,101370.53
2023-05-19T17:43:16.743Z,101359.09
2023-05-19T17:45:45.966Z,101362.78
2023-05-19T17:48:13.952Z,101369.69
2023-05-19T17:50:41.918Z,101366.72
2023-05-19T17:53:10.700Z,101369.38
2023-05-19T17:55:39.224Z,101368.06
2023-05-19T17:58:08.001Z,101375.44
2023-05-19T18:00:36.420Z,101374.38
2023-05-19T18:03:06.581Z,101373.56
2023-05-19T18:05:34.832Z,101373.38
2023-05-19T18:08:07.020Z,101379.72
2023-05-19T18:10:38.106Z,101383.09
2023-05-19T18:13:06.595Z,101386.53
2023-05-19T18:15:34.869Z,101387.25
2023-05-19T18:18:05.447Z,101382.31
2023-05-19T18:20:35.510Z,101386.44
2023-05-19T18:23:03.587Z,101390.41
2023-05-19T18:25:31.482Z,101400.16
2023-05-19T18:27:59.382Z,101397.66
2023-05-19T18:30:27.273Z,101395.69
2023-05-19T18:32:55.340Z,101402.84
2023-05-19T18:35:23.371Z,101406.50
2023-05-19T18:37:55.858Z,101405.53
2023-05-19T18:40:23.890Z,101399.44
2023-05-19T18:42:52.088Z,101399.31
2023-05-19T18:45:20.107Z,101401.66
2023-05-19T18:47:48.100Z,101398.06
2023-05-19T18:50:16.501Z,101403.81
2023-05-19T18:52:44.433Z,101397.78
2023-05-19T18:55:13.723Z,101402.16
2023-05-19T18:57:41.862Z,101404.59
2023-05-19T19:00:10.754Z,101407.25
2023-05-19T19:02:38.976Z,101413.69
2023-05-19T19:05:09.437Z,101414.31
2023-05-19T19:07:41.095Z,101417.91
2023-05-19T19:10:10.062Z,101422.16
2023-05-19T19:12:39.368Z,101416.88
2023-05-19T19:15:08.185Z,101417.94
2023-05-19T19:17:36.114Z,101419.09
2023-05-19T19:20:04.237Z,101426.06
2023-05-19T19:22:32.382Z,101430.81
2023-05-19T19:25:00.540Z,101444.44
2023-05-19T19:27:31.605Z,101441.31
2023-05-19T19:30:01.395Z,101441.41
2023-05-19T19:32:31.442Z,101437.03
2023-05-19T19:34:59.448Z,101436.72
2023-05-19T19:37:27.360Z,101443.59
2023-05-19T19:39:55.329Z,101442.63
2023-05-19T19:42:23.400Z,101455.22
2023-05-19T19:44:58.087Z,101445.50
2023-05-19T19:47:27.912Z,101455.94
2023-05-19T19:49:56.129Z,101459.06
2023-05-19T19:52:26.354Z,101467.91
2023-05-19T19:54:54.529Z,101466.06
2023-05-19T19:57:22.631Z,101476.63
2023-05-19T19:59:55.096Z,101471.28
2023-05-19T20:02:23.495Z,101472.59
2023-05-19T20:04:52.749Z,101476.97
2023-05-19T20:07:23.125Z,101474.84
2023-05-19T20:09:52.695Z,101472.19
2023-05-19T20:12:20.755Z,101469.72
2023-05-19T20:14:51.215Z,101470.06
2023-05-19T20:17:19.217Z,101473.28
2023-05-19T20:19:47.222Z,101479.00
2023-05-19T20:22:16.512Z,101479.09
2023-05-19T20:24:44.448Z,101483.66
2023-05-19T20:27:15.774Z,101486.47
2023-05-19T20:29:43.805Z,101480.41
2023-05-19T20:32:11.748Z,101478.06
2023-05-19T20:34:39.810Z,101485.53
2023-05-19T20:37:07.690Z,101486.59
2023-05-19T20:39:36.976Z,101487.69
2023-05-19T20:42:05.036Z,101494.94
2023-05-19T20:44:32.983Z,101491.69
2023-05-19T20:47:01.054Z,101506.78
2023-05-19T20:49:29.051Z,101503.56
2023-05-19T20:51:57.965Z,101506.19
2023-05-19T20:54:26.144Z,101505.53
2023-05-19T20:56:55.750Z,101497.00
2023-05-19T20:59:23.675Z,101513.03
2023-05-19T21:01:51.679Z,101511.41
2023-05-19T21:04:23.068Z,101510.81
2023-05-19T21:06:51.196Z,101511.72
2023-05-19T21:09:21.110Z,101517.03
2023-05-19T21:11:49.193Z,101515.53
2023-05-19T21:14:18.609Z,101514.69
2023-05-19T21:16:49.290Z,101525.47
2023-05-19T21:19:43.089Z,101522.94
2023-05-19T21:22:11.544Z,101515.25
2023-05-19T21:24:39.542Z,101528.44
2023-05-19T21:27:11.124Z,101526.88
2023-05-19T21:29:40.484Z,101526.19
2023-05-19T21:32:09.116Z,101523.69
2023-05-19T21:34:38.845Z,101525.47
2023-05-19T21:37:07.251Z,101525.63
2023-05-19T21:39:35.756Z,101525.09
2023-05-19T21:42:05.225Z,101518.25
2023-05-19T21:44:33.173Z,101527.41
2023-05-19T21:47:02.519Z,101520.25
2023-05-19T21:49:31.086Z,101515.19
2023-05-19T21:51:59.124Z,101516.13
2023-05-19T21:54:27.170Z,101513.38
2023-05-19T21:56:55.062Z,101517.97
2023-05-19T21:59:24.697Z,101518.03
2023-05-19T22:01:53.254Z,101519.63
2023-05-19T22:04:23.672Z,101517.09
2023-05-19T22:06:51.679Z,101519.88
2023-05-19T22:09:19.619Z,101516.53
2023-05-19T22:11:47.595Z,101511.13
2023-05-19T22:14:15.785Z,101512.97
2023-05-19T22:16:43.796Z,101509.47
2023-05-19T22:19:12.692Z,101511.16
2023-05-19T22:21:42.281Z,101505.22
2023-05-19T22:24:10.304Z,101503.56
2023-05-19T22:26:42.492Z,101507.09
2023-05-19T22:29:14.928Z,101508.81
2023-05-19T22:31:42.923Z,101514.94
2023-05-19T22:34:12.462Z,101516.72
2023-05-19T22:36:41.358Z,101506.25
2023-05-19T22:39:12.400Z,101509.06
2023-05-19T22:41:42.018Z,101508.19
2023-05-19T22:44:11.361Z,101508.19
2023-05-19T22:46:39.358Z,101504.81
2023-05-19T22:49:07.264Z,101505.72
2023-05-19T22:51:35.174Z,101509.28
2023-05-19T22:54:03.173Z,101512.88
2023-05-19T22:56:32.503Z,101504.94
2023-05-19T22:59:00.661Z,101507.75
2023-05-19T23:01:28.748Z,101494.72
2023-05-19T23:03:56.914Z,101499.94
2023-05-19T23:06:25.074Z,101495.81
2023-05-19T23:08:59.687Z,101506.63
2023-05-19T23:11:27.624Z,101502.25
2023-05-19T23:13:57.359Z,101504.88
2023-05-19T23:16:25.957Z,101496.16
2023-05-19T23:18:53.969Z,101497.94
2023-05-19T23:21:21.897Z,101497.06
2023-05-19T23:23:50.439Z,101487.47
2023-05-19T23:26:18.370Z,101489.28
2023-05-19T23:28:46.279Z,101492.91
2023-05-19T23:31:15.555Z,101487.66
2023-05-19T23:33:43.532Z,101495.50
2023-05-19T23:36:12.197Z,101495.59
2023-05-19T23:38:40.367Z,101491.19
2023-05-19T23:41:08.362Z,101491.25
2023-05-19T23:43:37.719Z,101498.38
2023-05-19T23:46:06.033Z,101487.91
2023-05-19T23:48:36.547Z,101483.69
2023-05-19T23:51:04.806Z,101486.31
2023-05-19T23:53:32.829Z,101488.25
2023-05-19T23:56:00.842Z,101488.31
2023-05-19T23:58:28.909Z,101499.66
